Time;durP1;ratioP1;P1;durP2;ratioP2;P2;SDS_P1;SDS_P2;PMS_P1;PMS_P2;Temp;Humidity;BMP_temperature;BMP_pressure;BME280_temperature;BME280_humidity;BME280_pressure;Samples;Min_cycle;Max_cycle;Signal;HPM_P1;HPM_P2
2022/01/03 00:01:28;;;;;;;80.88;10.38;;;12.20;99.90;;;;;;5010780;28;20022;-82
2022/01/03 00:03:55;;;;;;;80.32;10.13;;;12.20;99.90;;;;;;5010351;28;20018;-82
2022/01/03 00:06:20;;;;;;;92.07;9.43;;;12.20;99.90;;;;;;5009977;28;20029;-83
2022/01/03 00:08:47;;;;;;;86.63;9.75;;;12.20;99.90;;;;;;5010224;28;20040;-82
2022/01/03 00:11:15;;;;;;;91.68;11.43;;;12.20;99.90;;;;;;5029332;28;20028;-82
2022/01/03 00:13:46;;;;;;;102.32;11.43;;;12.20;99.90;;;;;;5011691;28;20287;-82
2022/01/03 00:16:12;;;;;;;86.75;11.55;;;12.20;99.90;;;;;;5011611;28;20051;-82
2022/01/03 00:18:39;;;;;;;75.53;10.00;;;12.20;99.90;;;;;;5029607;28;20049;-82
2022/01/03 00:21:14;;;;;;;74.63;10.18;;;12.20;99.90;;;;;;5008180;28;20034;-83
2022/01/03 00:23:47;;;;;;;89.72;10.93;;;12.20;99.90;;;;;;4990120;28;20376;-83
2022/01/03 00:26:18;;;;;;;89.18;10.00;;;12.30;99.90;;;;;;5010308;28;20018;-82
2022/01/03 00:28:52;;;;;;;101.10;11.75;;;12.30;99.90;;;;;;5010060;28;20038;-82
2022/01/03 00:31:19;;;;;;;108.68;13.23;;;12.30;99.90;;;;;;5010159;28;20022;-82
2022/01/03 00:33:51;;;;;;;82.90;10.73;;;12.30;99.90;;;;;;5009608;28;20083;-82
2022/01/03 00:36:18;;;;;;;81.97;10.13;;;12.30;99.90;;;;;;5009871;28;20275;-82
2022/01/03 00:38:44;;;;;;;90.30;11.18;;;12.30;99.90;;;;;;4994509;28;20037;-82
2022/01/03 00:41:09;;;;;;;82.55;10.77;;;12.30;99.90;;;;;;5011225;28;20021;-83
2022/01/03 00:43:35;;;;;;;78.03;9.48;;;12.30;99.90;;;;;;5029164;28;20025;-82
2022/01/03 00:46:01;;;;;;;99.55;10.57;;;12.30;99.90;;;;;;5028740;28;20021;-82
2022/01/03 00:48:26;;;;;;;81.50;10.57;;;12.30;99.90;;;;;;5028820;28;20221;-82
2022/01/03 00:50:52;;;;;;;97.60;11.55;;;12.30;99.90;;;;;;5028365;28;20072;-82
2022/01/03 00:53:19;;;;;;;92.07;10.52;;;12.30;99.90;;;;;;5028684;28;20452;-82
2022/01/03 00:56:08;;;;;;;81.90;9.63;;;12.30;99.90;;;;;;5028612;28;20029;-82
2022/01/03 00:58:37;;;;;;;85.72;10.68;;;12.30;99.90;;;;;;5028562;28;20025;-83
2022/01/03 01:01:05;;;;;;;89.15;11.50;;;12.30;99.90;;;;;;5028700;28;20040;-82
2022/01/03 01:03:36;;;;;;;86.97;9.85;;;12.30;99.90;;;;;;5028898;28;20075;-83
2022/01/03 01:06:05;;;;;;;91.05;11.48;;;12.30;99.90;;;;;;5032312;28;20208;-83
2022/01/03 01:08:33;;;;;;;90.63;11.10;;;12.30;99.90;;;;;;5032822;28;20045;-83
2022/01/03 01:11:01;;;;;;;85.70;10.43;;;12.30;99.90;;;;;;5032655;28;20249;-82
2022/01/03 01:13:26;;;;;;;86.93;11.75;;;12.40;99.90;;;;;;5032564;28;20022;-82
2022/01/03 01:15:52;;;;;;;72.22;8.57;;;12.40;99.90;;;;;;5032454;28;20032;-82
2022/01/03 01:18:18;;;;;;;83.65;9.68;;;12.40;99.90;;;;;;5032574;28;20060;-82
2022/01/03 01:20:44;;;;;;;83.90;9.82;;;12.40;99.90;;;;;;5032159;28;20078;-82
2022/01/03 01:23:11;;;;;;;84.95;12.10;;;12.40;99.90;;;;;;5033273;28;20060;-81
2022/01/03 01:28:05;;;;;;;89.68;9.82;;;12.50;99.90;;;;;;5032657;28;20073;-83
2022/01/03 01:30:31;;;;;;;87.25;10.10;;;12.40;99.90;;;;;;5032436;28;20037;-84
2022/01/03 01:33:16;;;;;;;77.85;9.00;;;12.40;99.90;;;;;;5032518;28;20092;-84
2022/01/03 01:35:42;;;;;;;;;;;12.50;99.90;;;;;;5032360;28;20493;-84
2022/01/03 01:38:13;;;;;;;74.18;8.23;;;12.50;99.90;;;;;;5014647;28;19905;-84
2022/01/03 01:40:45;;;;;;;68.85;8.90;;;12.50;99.90;;;;;;5032160;28;20067;-84
2022/01/03 01:43:19;;;;;;;70.32;9.20;;;12.50;99.90;;;;;;5032363;28;20032;-84
2022/01/03 01:45:48;;;;;;;89.20;9.73;;;12.50;99.90;;;;;;4998509;28;20091;-84
2022/01/03 01:48:16;;;;;;;81.80;8.18;;;12.60;99.90;;;;;;5006742;28;20313;-84
2022/01/03 01:50:42;;;;;;;66.07;8.43;;;12.60;99.90;;;;;;5013051;28;20026;-84
2022/01/03 01:53:09;;;;;;;79.53;8.00;;;12.50;99.90;;;;;;5006768;28;20116;-84
2022/01/03 01:55:39;;;;;;;73.15;8.95;;;12.50;99.90;;;;;;5031034;28;20025;-84
2022/01/03 01:58:06;;;;;;;90.55;10.73;;;12.50;99.90;;;;;;5032172;28;20482;-84
2022/01/03 02:00:34;;;;;;;78.43;9.65;;;12.50;99.90;;;;;;5002102;28;20179;-84
2022/01/03 02:03:02;;;;;;;84.72;8.00;;;12.50;99.90;;;;;;4989211;28;20087;-82
2022/01/03 02:05:39;;;;;;;71.15;8.48;;;12.40;99.90;;;;;;5013061;28;20026;-82
2022/01/03 02:08:04;;;;;;;78.72;9.98;;;12.40;99.90;;;;;;5007614;28;20038;-82
2022/01/03 02:10:49;;;;;;;77.43;9.15;;;12.40;99.90;;;;;;5012913;28;20045;-84
2022/01/03 02:13:16;;;;;;;79.22;7.97;;;12.40;99.90;;;;;;4995199;28;20029;-84
2022/01/03 02:15:46;;;;;;;86.60;9.77;;;12.40;99.90;;;;;;5011463;28;20034;-84
2022/01/03 02:18:12;;;;;;;83.68;11.02;;;12.40;99.90;;;;;;4995064;28;20636;-84
2022/01/03 02:20:38;;;;;;;75.63;8.88;;;12.40;99.90;;;;;;5012042;28;20269;-84
2022/01/03 02:23:05;;;;;;;74.60;10.10;;;12.40;99.90;;;;;;4994509;28;20166;-83
2022/01/03 02:25:31;;;;;;;81.93;8.85;;;12.40;99.90;;;;;;5012541;28;20025;-84
2022/01/03 02:27:57;;;;;;;72.68;9.40;;;12.40;99.90;;;;;;5012366;28;20125;-84
2022/01/03 02:30:25;;;;;;;70.32;9.30;;;12.30;99.90;;;;;;5012409;28;20022;-84
2022/01/03 02:32:51;;;;;;;83.70;11.13;;;12.30;99.90;;;;;;5012330;28;20029;-84
2022/01/03 02:35:17;;;;;;;81.30;10.80;;;12.30;99.90;;;;;;5011924;28;20026;-84
2022/01/03 02:37:45;;;;;;;73.38;8.85;;;12.40;99.90;;;;;;5012102;28;20517;-84
2022/01/03 02:40:11;;;;;;;79.57;8.77;;;12.30;99.90;;;;;;5012377;28;20108;-84
2022/01/03 02:42:38;;;;;;;63.25;7.78;;;12.30;99.90;;;;;;5012102;28;20041;-84
2022/01/03 02:45:10;;;;;;;80.53;9.35;;;12.40;99.90;;;;;;5012261;28;20172;-84
2022/01/03 02:47:36;;;;;;;80.63;8.75;;;12.30;99.90;;;;;;5012124;28;20118;-84
2022/01/03 02:50:04;;;;;;;80.30;8.85;;;12.30;99.90;;;;;;5011705;28;20045;-84
2022/01/03 02:52:30;;;;;;;68.88;9.45;;;12.40;99.90;;;;;;5011918;28;20030;-84
2022/01/03 02:54:56;;;;;;;63.10;7.82;;;12.40;99.90;;;;;;5011729;28;20017;-84
2022/01/03 02:57:23;;;;;;;72.13;9.20;;;12.40;99.90;;;;;;5011777;28;20032;-81
2022/01/03 02:59:57;;;;;;;80.07;8.25;;;12.40;99.90;;;;;;5011812;28;20050;-81
2022/01/03 03:02:24;;;;;;;71.63;7.95;;;12.50;99.90;;;;;;5011873;28;20022;-81
2022/01/03 03:04:54;;;;;;;69.15;7.05;;;12.40;99.90;;;;;;5011262;28;20034;-81
2022/01/03 03:07:25;;;;;;;80.65;9.23;;;12.50;99.90;;;;;;5011536;28;20387;-82
2022/01/03 03:09:51;;;;;;;71.68;7.60;;;12.50;99.90;;;;;;5011602;28;20537;-82
2022/01/03 03:12:17;;;;;;;83.80;9.38;;;12.50;99.90;;;;;;5011622;28;20109;-84
2022/01/03 03:14:43;;;;;;;67.03;8.50;;;12.50;99.90;;;;;;5011391;28;20029;-84
2022/01/03 03:17:09;;;;;;;69.68;7.82;;;12.60;99.90;;;;;;5011497;28;20076;-84
2022/01/03 03:19:53;;;;;;;62.17;7.05;;;12.50;99.90;;;;;;5010992;28;20316;-84
2022/01/03 03:22:19;;;;;;;73.40;8.15;;;12.50;99.90;;;;;;4990619;28;20113;-84
2022/01/03 03:24:45;;;;;;;66.80;7.10;;;12.60;99.90;;;;;;5008372;28;20026;-84
2022/01/03 03:27:12;;;;;;;64.65;7.30;;;12.70;99.90;;;;;;5011259;28;20099;-84
2022/01/03 03:29:49;;;;;;;67.32;8.63;;;12.60;99.90;;;;;;5011470;28;20077;-84
2022/01/03 03:32:15;;;;;;;61.50;7.05;;;12.60;99.90;;;;;;5011358;28;20022;-84
2022/01/03 03:34:42;;;;;;;64.93;7.65;;;12.60;99.90;;;;;;5010870;28;20124;-84
2022/01/03 03:37:09;;;;;;;74.75;9.18;;;12.60;99.90;;;;;;5010991;28;20018;-84
2022/01/03 03:39:36;;;;;;;55.78;8.00;;;12.60;99.90;;;;;;5011033;28;20033;-84
2022/01/03 03:42:04;;;;;;;62.08;8.57;;;12.60;99.90;;;;;;4990149;28;20402;-84
2022/01/03 03:44:30;;;;;;;64.72;7.90;;;12.60;99.90;;;;;;5008317;28;20034;-84
2022/01/03 03:46:55;;;;;;;65.65;7.95;;;12.70;99.90;;;;;;5010747;28;20453;-84
2022/01/03 03:49:21;;;;;;;73.97;8.13;;;12.60;99.90;;;;;;5010884;28;20545;-84
2022/01/03 03:51:47;;;;;;;63.20;8.07;;;12.60;99.90;;;;;;5010523;28;20057;-84
2022/01/03 03:54:12;;;;;;;76.22;9.18;;;12.60;99.90;;;;;;5010811;28;20033;-84
2022/01/03 03:56:38;;;;;;;58.03;7.40;;;12.60;99.90;;;;;;5010937;28;20100;-84
2022/01/03 03:59:04;;;;;;;62.67;7.70;;;12.60;99.90;;;;;;5010935;28;20116;-84
2022/01/03 04:01:29;;;;;;;69.70;8.63;;;12.60;99.90;;;;;;5010591;28;20033;-84
2022/01/03 04:03:55;;;;;;;69.88;7.85;;;12.60;99.90;;;;;;5010653;28;20022;-84
2022/01/03 04:06:21;;;;;;;61.22;6.47;;;12.60;99.90;;;;;;5010465;28;20030;-84
2022/01/03 04:08:46;;;;;;;64.45;7.60;;;12.60;99.90;;;;;;5010440;28;20038;-84
2022/01/03 04:11:15;;;;;;;65.20;7.97;;;12.60;99.90;;;;;;5010478;28;20021;-84
2022/01/03 04:13:41;;;;;;;63.22;7.88;;;12.60;99.90;;;;;;5010775;28;20414;-84
2022/01/03 04:16:07;;;;;;;77.95;7.25;;;12.60;99.90;;;;;;5010585;28;20040;-84
2022/01/03 04:18:33;;;;;;;69.78;7.90;;;12.60;99.90;;;;;;5004262;28;20026;-84
2022/01/03 04:20:59;;;;;;;67.07;7.65;;;12.60;99.90;;;;;;5011432;28;20528;-84
2022/01/03 04:23:25;;;;;;;66.85;8.63;;;12.60;99.90;;;;;;5029355;28;20033;-84
2022/01/03 04:25:51;;;;;;;63.63;8.07;;;12.60;99.90;;;;;;5029291;28;20510;-84
2022/01/03 04:28:18;;;;;;;71.47;8.63;;;12.60;99.90;;;;;;5011876;28;20025;-84
2022/01/03 04:30:44;;;;;;;63.08;7.53;;;12.60;99.90;;;;;;5029191;28;20494;-84
2022/01/03 04:33:10;;;;;;;55.85;7.40;;;12.60;99.90;;;;;;5029102;28;20115;-84
2022/01/03 04:35:37;;;;;;;72.35;8.65;;;12.60;99.90;;;;;;5028722;28;20537;-84
2022/01/03 04:38:03;;;;;;;62.38;6.82;;;12.60;99.90;;;;;;5028988;28;20021;-84
2022/01/03 04:40:29;;;;;;;64.85;8.10;;;12.50;99.90;;;;;;5028348;28;20036;-84
2022/01/03 04:42:55;;;;;;;70.13;7.03;;;12.50;99.90;;;;;;5028869;28;20021;-84
2022/01/03 04:45:21;;;;;;;65.82;7.70;;;12.50;99.90;;;;;;5028738;28;20390;-84
2022/01/03 04:47:47;;;;;;;55.90;7.22;;;12.50;99.90;;;;;;5028719;28;20033;-84
2022/01/03 04:50:13;;;;;;;63.45;7.95;;;12.50;99.90;;;;;;5028563;28;20040;-84
2022/01/03 04:52:38;;;;;;;60.42;8.10;;;12.50;99.90;;;;;;5028843;28;20026;-84
2022/01/03 04:55:05;;;;;;;63.40;6.78;;;12.50;99.90;;;;;;5011090;28;20030;-84
2022/01/03 04:57:30;;;;;;;61.28;8.75;;;12.40;99.90;;;;;;5028950;28;20512;-84
2022/01/03 04:59:56;;;;;;;59.55;7.78;;;12.40;99.90;;;;;;5028582;28;20104;-84
2022/01/03 05:02:22;;;;;;;59.97;6.88;;;12.40;99.90;;;;;;5011071;28;20437;-84
2022/01/03 05:04:48;;;;;;;65.65;6.95;;;12.50;99.90;;;;;;5028496;28;20037;-84
2022/01/03 05:07:14;;;;;;;63.78;6.32;;;12.50;99.90;;;;;;5028690;28;20041;-84
2022/01/03 05:09:39;;;;;;;54.78;6.40;;;12.50;99.90;;;;;;5028609;28;20072;-84
2022/01/03 05:12:06;;;;;;;68.30;7.38;;;12.50;99.90;;;;;;5020573;28;20092;-84
2022/01/03 05:14:31;;;;;;;67.90;7.15;;;12.40;99.90;;;;;;5029238;28;20057;-84
2022/01/03 05:16:57;;;;;;;64.05;8.43;;;12.50;99.90;;;;;;5028465;28;20064;-84
2022/01/03 05:19:24;;;;;;;59.58;7.40;;;12.50;99.90;;;;;;5028451;28;20164;-84
2022/01/03 05:21:51;;;;;;;58.53;7.07;;;12.50;99.90;;;;;;5028712;28;20037;-84
2022/01/03 05:24:17;;;;;;;53.13;7.95;;;12.50;99.90;;;;;;5028673;28;20486;-84
2022/01/03 05:26:43;;;;;;;56.33;6.88;;;12.50;99.90;;;;;;5028448;28;20030;-84
2022/01/03 05:29:08;;;;;;;51.03;7.00;;;12.50;99.90;;;;;;5028269;28;20489;-84
2022/01/03 05:31:34;;;;;;;55.53;7.25;;;12.50;99.90;;;;;;5028614;28;20025;-84
2022/01/03 05:34:00;;;;;;;52.47;6.47;;;12.50;99.90;;;;;;5028365;28;20059;-83
2022/01/03 05:36:27;;;;;;;45.03;5.10;;;12.50;99.90;;;;;;5010541;28;20513;-84
2022/01/03 05:38:52;;;;;;;49.63;5.35;;;12.50;99.90;;;;;;5028606;28;20025;-84
2022/01/03 05:41:18;;;;;;;61.45;7.88;;;12.50;99.90;;;;;;5028203;28;20021;-84
2022/01/03 05:43:45;;;;;;;57.92;6.30;;;12.50;99.90;;;;;;5028317;28;20108;-84
2022/01/03 05:46:14;;;;;;;52.90;6.38;;;12.50;99.90;;;;;;5028193;28;20028;-84
2022/01/03 05:48:40;;;;;;;43.78;6.18;;;12.50;99.90;;;;;;5010329;28;20045;-84
2022/01/03 05:51:06;;;;;;;48.40;6.28;;;12.50;99.90;;;;;;5030326;28;20448;-84
2022/01/03 05:53:31;;;;;;;42.20;5.45;;;12.50;99.90;;;;;;5031955;28;20053;-84
2022/01/03 05:55:59;;;;;;;41.22;4.93;;;12.40;99.90;;;;;;5032013;28;20022;-83
2022/01/03 05:58:24;;;;;;;42.22;5.15;;;12.40;99.90;;;;;;5014088;28;20045;-83
2022/01/03 06:00:50;;;;;;;35.63;4.88;;;12.40;99.90;;;;;;5031857;28;20033;-83
2022/01/03 06:03:19;;;;;;;39.78;5.32;;;12.50;99.90;;;;;;5031609;28;20033;-82
2022/01/03 06:08:24;;;;;;;46.95;6.35;;;12.50;99.90;;;;;;5031571;28;20030;-82
2022/01/03 06:10:50;;;;;;;43.63;6.15;;;12.50;99.90;;;;;;5014200;28;20076;-82
2022/01/03 06:13:17;;;;;;;32.58;5.88;;;12.50;99.90;;;;;;5031401;28;20022;-82
2022/01/03 06:15:43;;;;;;;40.08;6.10;;;12.60;99.90;;;;;;5031575;28;20100;-82
2022/01/03 06:18:11;;;;;;;33.10;4.45;;;12.50;99.90;;;;;;5031209;28;20124;-82
2022/01/03 06:20:42;;;;;;;34.50;4.85;;;12.50;99.90;;;;;;5031398;28;20231;-82
2022/01/03 06:23:10;;;;;;;35.45;4.97;;;12.50;99.90;;;;;;5013529;28;20080;-82
2022/01/03 06:25:37;;;;;;;38.88;5.07;;;12.40;99.90;;;;;;5031135;28;20029;-82
2022/01/03 06:28:07;;;;;;;34.20;4.32;;;12.40;99.90;;;;;;5031082;28;20040;-83
2022/01/03 06:30:33;;;;;;;36.85;4.97;;;12.40;99.90;;;;;;5031066;28;20049;-83
2022/01/03 06:32:59;;;;;;;43.00;5.63;;;12.40;99.90;;;;;;5031296;28;20060;-83
2022/01/03 06:35:25;;;;;;;34.65;6.07;;;12.40;99.90;;;;;;5013656;28;20377;-83
2022/01/03 06:37:51;;;;;;;44.40;7.85;;;12.40;99.90;;;;;;5031159;28;20482;-83
2022/01/03 06:40:17;;;;;;;43.22;6.50;;;12.40;99.90;;;;;;5031339;28;20025;-83
2022/01/03 06:42:42;;;;;;;38.38;6.22;;;12.50;99.90;;;;;;5030962;28;20379;-83
2022/01/03 06:45:08;;;;;;;36.63;5.40;;;12.50;99.90;;;;;;5031162;28;20026;-83
2022/01/03 06:47:35;;;;;;;33.72;5.85;;;12.50;99.90;;;;;;5031152;28;20260;-83
2022/01/03 06:50:01;;;;;;;38.20;5.97;;;12.50;99.90;;;;;;5030356;28;20065;-83
2022/01/03 06:52:26;;;;;;;31.98;5.63;;;12.60;99.90;;;;;;5013436;28;20083;-83
2022/01/03 06:54:53;;;;;;;42.58;6.32;;;12.60;99.90;;;;;;5031083;28;20025;-83
2022/01/03 06:57:18;;;;;;;42.83;6.97;;;12.60;99.90;;;;;;5030892;28;20625;-83
2022/01/03 06:59:44;;;;;;;47.17;7.43;;;12.70;99.90;;;;;;5030987;28;20112;-83
2022/01/03 07:02:10;;;;;;;51.30;6.97;;;12.70;99.90;;;;;;5030088;28;20478;-83
2022/01/03 07:04:35;;;;;;;45.85;7.15;;;12.70;99.90;;;;;;5030363;28;20034;-83
2022/01/03 07:07:01;;;;;;;38.83;6.38;;;12.70;99.90;;;;;;5030359;28;20040;-83
2022/01/03 07:09:27;;;;;;;46.78;7.00;;;12.70;99.90;;;;;;5013028;28;20060;-83
2022/01/03 07:11:52;;;;;;;41.30;6.53;;;12.70;99.90;;;;;;5030969;28;20537;-83
2022/01/03 07:19:37;;;;;;;35.10;5.15;;;12.70;99.90;;;;;;5007691;28;20502;-83
2022/01/03 07:22:04;;;;;;;44.10;6.18;;;12.70;99.90;;;;;;5011462;28;20029;-83
2022/01/03 07:24:33;;;;;;;46.05;9.00;;;12.70;99.90;;;;;;4992949;28;20100;-82
2022/01/03 07:27:04;;;;;;;36.22;6.03;;;12.60;99.90;;;;;;5011505;28;20052;-85
2022/01/03 07:29:29;;;;;;;45.60;8.57;;;12.70;99.90;;;;;;5011558;28;20040;-86
2022/01/03 07:31:55;;;;;;;40.70;6.80;;;12.60;99.90;;;;;;5011226;28;20026;-85
2022/01/03 07:34:21;;;;;;;35.45;5.95;;;12.60;99.90;;;;;;4993174;28;20022;-86
2022/01/03 07:36:47;;;;;;;44.33;7.57;;;12.60;99.90;;;;;;5011195;28;20041;-86
2022/01/03 07:39:13;;;;;;;41.78;7.55;;;12.60;99.90;;;;;;4993575;28;20065;-86
2022/01/03 07:41:39;;;;;;;40.20;5.72;;;12.50;99.90;;;;;;5011600;28;20382;-86
2022/01/03 07:44:04;;;;;;;26.02;5.20;;;12.50;99.90;;;;;;4993189;28;20553;-86
2022/01/03 07:46:30;;;;;;;34.90;5.93;;;12.50;99.90;;;;;;5011192;28;20383;-86
2022/01/03 07:48:56;;;;;;;31.48;5.05;;;12.50;99.90;;;;;;4990039;28;20060;-86
2022/01/03 07:51:21;;;;;;;25.80;4.40;;;12.40;99.90;;;;;;5029833;28;20059;-85
2022/01/03 07:53:47;;;;;;;32.15;5.00;;;12.50;99.90;;;;;;5003136;28;20556;-85
2022/01/03 07:56:13;;;;;;;34.85;5.50;;;12.40;99.90;;;;;;5011156;28;20116;-85
2022/01/03 07:58:38;;;;;;;32.40;4.97;;;12.50;99.90;;;;;;5010732;28;20101;-85
2022/01/03 08:01:04;;;;;;;23.90;4.30;;;12.40;99.90;;;;;;5010673;28;20030;-85
2022/01/03 08:03:30;;;;;;;47.13;5.00;;;12.50;99.90;;;;;;5010767;28;20024;-85
2022/01/03 08:05:56;;;;;;;28.33;4.40;;;12.50;99.90;;;;;;5010319;28;20033;-85
2022/01/03 08:08:23;;;;;;;41.22;5.13;;;12.50;99.90;;;;;;5010234;28;20572;-85
2022/01/03 08:10:49;;;;;;;37.67;4.55;;;12.50;99.90;;;;;;5010246;28;20113;-85
2022/01/03 08:13:15;;;;;;;34.92;4.75;;;12.60;99.90;;;;;;5009979;28;20394;-85
2022/01/03 08:15:42;;;;;;;37.33;5.20;;;12.60;99.90;;;;;;5009905;28;20026;-85
2022/01/03 08:18:08;;;;;;;34.92;3.95;;;12.60;99.90;;;;;;5010266;28;20033;-86
2022/01/03 08:20:34;;;;;;;28.13;4.00;;;12.60;99.90;;;;;;4989436;28;20399;-86
2022/01/03 08:23:00;;;;;;;34.42;5.38;;;12.60;99.90;;;;;;5022017;28;20034;-86
2022/01/03 08:25:26;;;;;;;28.77;4.15;;;12.60;99.90;;;;;;5029141;28;20031;-86
2022/01/03 08:27:51;;;;;;;39.25;6.70;;;12.70;99.90;;;;;;5029088;28;20085;-86
2022/01/03 08:30:17;;;;;;;28.20;4.50;;;12.70;99.90;;;;;;5029092;28;20021;-86
2022/01/03 08:32:43;;;;;;;32.55;5.53;;;12.70;99.90;;;;;;5028911;28;20098;-86
2022/01/03 08:35:10;;;;;;;29.35;5.10;;;12.70;99.90;;;;;;5028653;28;20021;-86
2022/01/03 08:37:36;;;;;;;25.60;4.13;;;12.70;99.90;;;;;;5029138;28;20057;-86
2022/01/03 08:40:04;;;;;;;31.25;4.78;;;12.70;99.90;;;;;;5028780;28;20236;-86
2022/01/03 08:42:36;;;;;;;37.67;5.25;;;12.80;99.90;;;;;;5028997;28;20021;-86
2022/01/03 08:45:04;;;;;;;30.40;5.18;;;12.80;99.90;;;;;;5010834;28;20573;-86
2022/01/03 08:47:30;;;;;;;31.83;6.40;;;12.80;99.90;;;;;;5029158;28;20037;-86
2022/01/03 08:49:56;;;;;;;39.92;9.02;;;12.80;99.90;;;;;;5028244;28;20046;-86
2022/01/03 08:52:23;;;;;;;50.33;9.50;;;12.80;99.90;;;;;;5028760;28;20049;-86
2022/01/03 08:54:49;;;;;;;37.13;7.32;;;12.80;99.90;;;;;;5029184;28;20017;-86
2022/01/03 08:57:15;;;;;;;32.47;6.13;;;12.70;99.90;;;;;;5028840;28;20134;-85
2022/01/03 08:59:40;;;;;;;40.83;8.75;;;12.70;99.90;;;;;;5028935;28;20025;-86
2022/01/03 09:02:07;;;;;;;39.65;7.10;;;12.70;99.90;;;;;;5029022;28;20057;-85
2022/01/03 09:04:32;;;;;;;26.15;3.95;;;12.70;99.90;;;;;;5010992;28;20033;-85
2022/01/03 09:06:59;;;;;;;31.80;5.00;;;12.60;99.90;;;;;;5011280;28;20053;-86
2022/01/03 09:09:27;;;;;;;28.25;5.15;;;12.70;99.90;;;;;;5009502;28;20057;-86
2022/01/03 09:11:53;;;;;;;24.27;4.15;;;12.60;99.90;;;;;;5009896;28;20030;-86
2022/01/03 09:14:19;;;;;;;23.08;3.55;;;12.70;99.90;;;;;;5011187;28;20031;-86
2022/01/03 09:16:44;;;;;;;27.38;5.20;;;12.70;99.90;;;;;;5011355;28;20112;-86
2022/01/03 09:19:10;;;;;;;26.75;4.50;;;12.70;99.90;;;;;;5028435;28;20059;-86
2022/01/03 09:21:36;;;;;;;22.02;2.92;;;12.80;99.90;;;;;;5028852;28;20566;-86
2022/01/03 09:24:47;;;;;;;24.73;3.50;;;12.90;99.90;;;;;;5011254;28;20108;-86
2022/01/03 09:29:35;;;;;;;24.67;3.53;;;12.90;99.90;;;;;;5032769;28;20083;-86
2022/01/03 09:32:01;;;;;;;35.63;6.22;;;12.90;99.90;;;;;;5032440;28;20091;-86
2022/01/03 09:34:26;;;;;;;23.15;4.35;;;12.90;99.90;;;;;;5001535;28;20470;-86
2022/01/03 09:36:53;;;;;;;28.10;5.05;;;12.90;99.90;;;;;;5032138;28;20026;-86
2022/01/03 09:39:19;;;;;;;24.65;5.70;;;13.00;99.90;;;;;;5032455;28;20152;-86
2022/01/03 09:41:56;;;;;;;34.30;4.80;;;12.90;99.90;;;;;;5032325;28;20060;-86
2022/01/03 09:44:29;;;;;;;23.67;5.15;;;13.00;99.90;;;;;;5014787;28;20090;-86
2022/01/03 09:46:57;;;;;;;24.50;4.35;;;13.00;99.90;;;;;;5032250;28;20026;-86
2022/01/03 09:49:25;;;;;;;26.13;5.05;;;12.90;99.90;;;;;;5031502;28;20049;-85
2022/01/03 09:51:52;;;;;;;26.30;5.20;;;12.90;99.90;;;;;;5032104;28;20429;-86
2022/01/03 09:54:21;;;;;;;21.23;5.22;;;12.90;99.90;;;;;;5032047;28;20025;-86
2022/01/03 09:56:51;;;;;;;34.22;4.95;;;13.00;99.90;;;;;;5032095;28;20611;-86
2022/01/03 09:59:18;;;;;;;29.30;4.45;;;13.00;99.90;;;;;;5014310;28;20014;-86
2022/01/03 10:01:45;;;;;;;28.88;4.38;;;13.10;99.90;;;;;;5014461;28;20040;-86
2022/01/03 10:04:14;;;;;;;23.98;4.72;;;13.00;99.90;;;;;;5013871;28;20092;-86
2022/01/03 10:06:41;;;;;;;30.50;4.05;;;13.10;99.90;;;;;;5031773;28;20028;-86
2022/01/03 10:09:06;;;;;;;23.27;3.33;;;13.10;99.90;;;;;;5031757;28;20040;-86
2022/01/03 10:11:32;;;;;;;22.67;4.38;;;13.10;99.90;;;;;;5031460;28;20033;-86
2022/01/03 10:14:01;;;;;;;20.83;6.03;;;13.20;99.90;;;;;;5007196;28;20036;-86
2022/01/03 10:16:28;;;;;;;21.30;4.97;;;13.40;99.90;;;;;;5031612;28;20037;-86
2022/01/03 10:18:54;;;;;;;28.20;4.90;;;13.50;99.90;;;;;;5013394;28;20533;-86
2022/01/03 10:21:52;;;;;;;22.15;5.20;;;13.50;99.90;;;;;;5031389;28;20097;-86
2022/01/03 10:24:29;;;;;;;22.88;5.25;;;13.50;99.90;;;;;;5019100;28;20551;-86
2022/01/03 10:26:56;;;;;;;27.88;5.18;;;13.50;99.90;;;;;;5031581;28;20036;-86
2022/01/03 10:29:26;;;;;;;20.55;4.13;;;13.60;99.90;;;;;;5013649;28;20549;-86
2022/01/03 10:31:58;;;;;;;26.45;5.32;;;13.60;99.90;;;;;;5031333;28;20389;-86
2022/01/03 10:34:25;;;;;;;23.13;4.47;;;13.70;99.90;;;;;;5030642;28;20053;-86
2022/01/03 10:36:52;;;;;;;23.70;4.85;;;13.70;99.90;;;;;;5012500;28;20088;-86
2022/01/03 10:39:21;;;;;;;22.77;5.13;;;13.60;99.90;;;;;;5013639;28;20030;-86
2022/01/03 10:41:50;;;;;;;27.92;5.32;;;13.60;99.90;;;;;;5013699;28;20021;-85
2022/01/03 10:44:37;;;;;;;21.50;4.30;;;13.70;99.90;;;;;;5031303;28;20486;-85
2022/01/03 10:47:05;;;;;;;15.50;2.67;;;13.70;99.90;;;;;;5013540;28;20030;-85
2022/01/03 10:49:32;;;;;;;28.38;4.07;;;13.70;99.90;;;;;;5030579;28;20115;-86
2022/01/03 10:52:22;;;;;;;22.33;4.53;;;13.80;99.90;;;;;;5031277;28;20033;-85
2022/01/03 10:55:15;;;;;;;32.35;5.10;;;13.80;99.90;;;;;;5031040;28;20029;-86
2022/01/03 10:57:52;;;;;;;23.85;4.82;;;13.90;99.90;;;;;;5030977;28;20026;-86
2022/01/03 11:00:31;;;;;;;17.70;3.72;;;13.90;99.90;;;;;;5018697;28;20083;-86
2022/01/03 11:03:20;;;;;;;18.23;3.70;;;13.80;99.90;;;;;;5006891;28;20017;-85
2022/01/03 11:05:52;;;;;;;22.25;5.40;;;13.80;99.90;;;;;;5011613;28;20026;-85
2022/01/03 11:11:11;;;;;;;28.00;6.53;;;13.70;99.90;;;;;;5012004;28;20111;-85
2022/01/03 11:13:41;;;;;;;25.13;7.40;;;13.60;99.90;;;;;;4993970;28;20026;-86
2022/01/03 11:16:09;;;;;;;32.47;6.22;;;13.50;99.90;;;;;;4992305;28;20027;-85
2022/01/03 11:18:37;;;;;;;28.02;5.25;;;13.50;99.90;;;;;;5019257;28;20036;-87
2022/01/03 11:21:21;;;;;;;34.15;6.00;;;13.40;99.90;;;;;;5030812;28;20021;-86
2022/01/03 11:24:00;;;;;;;29.40;6.20;;;13.30;99.90;;;;;;5013415;28;20014;-87
2022/01/03 11:26:28;;;;;;;38.47;8.10;;;13.40;99.90;;;;;;5012754;28;20494;-87
2022/01/03 11:28:55;;;;;;;34.03;6.63;;;13.40;99.90;;;;;;4997676;28;20042;-87
2022/01/03 11:31:21;;;;;;;34.33;6.85;;;13.30;99.90;;;;;;5030271;28;20025;-87
2022/01/03 11:33:49;;;;;;;40.38;7.82;;;13.40;99.90;;;;;;5030432;28;20201;-87
2022/01/03 11:36:22;;;;;;;38.67;7.90;;;13.40;99.90;;;;;;5029591;28;20028;-87
2022/01/03 11:38:48;;;;;;;38.65;8.32;;;13.40;99.90;;;;;;5012477;28;20033;-87
2022/01/03 11:41:15;;;;;;;41.40;8.05;;;13.40;99.90;;;;;;5030279;28;20080;-87
2022/01/03 11:43:43;;;;;;;40.42;8.95;;;13.40;99.90;;;;;;5030426;28;20022;-87
2022/01/03 11:46:09;;;;;;;36.75;8.70;;;13.40;99.90;;;;;;5030244;28;20053;-86
2022/01/03 11:48:36;;;;;;;29.73;9.43;;;13.50;99.90;;;;;;5029691;28;20073;-86
2022/01/03 11:51:06;;;;;;;34.38;9.00;;;13.50;99.90;;;;;;4999530;28;20113;-86
2022/01/03 11:53:34;;;;;;;34.03;9.30;;;13.50;99.90;;;;;;4992139;28;20040;-86
2022/01/03 11:56:03;;;;;;;29.90;7.97;;;13.50;99.90;;;;;;5011044;28;20049;-87
2022/01/03 11:58:44;;;;;;;33.95;8.70;;;13.60;99.90;;;;;;5010496;28;20398;-87
2022/01/03 12:03:57;;;;;;;33.13;7.53;;;13.50;99.90;;;;;;5010685;28;20033;-87
2022/01/03 12:06:33;;;;;;;35.45;8.07;;;13.50;99.90;;;;;;4992503;28;20053;-86
2022/01/03 12:09:05;;;;;;;34.00;7.57;;;13.50;99.90;;;;;;4989822;28;20518;-86
2022/01/03 12:11:31;;;;;;;32.97;7.10;;;13.50;99.90;;;;;;5008573;28;20049;-86
2022/01/03 12:14:10;;;;;;;39.92;7.55;;;13.50;99.90;;;;;;5010593;28;20033;-86
2022/01/03 12:17:03;;;;;;;38.75;7.82;;;13.50;99.90;;;;;;4989681;28;20120;-87
2022/01/03 12:19:31;;;;;;;32.83;7.13;;;13.50;99.90;;;;;;5002559;28;20021;-86
2022/01/03 12:22:14;;;;;;;31.75;6.47;;;13.60;99.90;;;;;;5011541;28;20032;-87
2022/01/03 12:24:44;;;;;;;26.45;6.20;;;13.60;99.90;;;;;;5029395;28;20508;-87
2022/01/03 12:27:12;;;;;;;37.50;7.32;;;13.70;99.90;;;;;;5028734;28;20111;-86
2022/01/03 12:29:56;;;;;;;32.65;5.72;;;13.70;99.90;;;;;;5029523;28;20049;-87
2022/01/03 12:32:29;;;;;;;26.33;6.10;;;13.90;99.90;;;;;;5011940;28;20073;-87
2022/01/03 12:35:15;;;;;;;28.58;6.15;;;14.10;99.90;;;;;;5011129;28;20086;-87
2022/01/03 12:37:54;;;;;;;33.28;6.63;;;14.30;99.90;;;;;;5011516;28;20565;-86
2022/01/03 12:40:22;;;;;;;43.88;8.52;;;14.40;99.90;;;;;;5029259;28;20037;-87
2022/01/03 12:42:48;;;;;;;27.85;6.68;;;14.30;99.90;;;;;;5028941;28;20022;-87
2022/01/03 12:45:34;;;;;;;29.20;6.47;;;14.00;99.90;;;;;;5029276;28;20377;-86
2022/01/03 12:48:09;;;;;;;33.22;7.28;;;14.00;99.90;;;;;;5028622;28;20045;-87
2022/01/03 12:50:58;;;;;;;34.15;6.82;;;13.90;99.90;;;;;;4992219;28;20042;-86
2022/01/03 12:53:26;;;;;;;34.45;8.23;;;13.80;99.90;;;;;;4999877;28;20449;-87
2022/01/03 12:56:01;;;;;;;43.05;9.50;;;13.80;99.90;;;;;;5028796;28;20583;-87
2022/01/03 12:58:26;;;;;;;36.30;10.35;;;13.70;99.90;;;;;;5011201;28;20026;-87
2022/01/03 13:01:00;;;;;;;34.40;10.60;;;13.70;99.90;;;;;;5028324;28;20044;-86